Time,TemperatureF,DewpointF,PressureIn,WindDirection,WindDirectionDegrees,WindSpeedMPH,WindSpeedGustMPH,Humidity,HourlyPrecipIn,Conditions,Clouds,dailyrainin,SolarRadiationWatts/m^2,SoftwareType,DateUTC
2013-03-19 00:03:00,27.0,27.0,-100.00,SSE,158,11.0,19.0,99,0.00,,,0.00,0.000000,,2013-03-19 04:03:00,
2013-03-19 00:34:00,28.0,28.0,-100.00,SSE,161,11.0,19.0,100,0.00,,,0.00,0.000000,,2013-03-19 04:34:00,
2013-03-19 00:43:00,28.0,28.0,-100.00,SSE,161,11.0,19.0,100,0.00,,,0.00,0.000000,,2013-03-19 04:43:00,
2013-03-19 00:53:00,28.0,28.0,-100.00,SSE,161,11.0,19.0,100,0.00,,,0.00,0.000000,,2013-03-19 04:53:00,
2013-03-19 01:02:00,28.0,28.0,-100.00,SSE,161,11.0,19.0,100,0.00,,,0.00,0.000000,,2013-03-19 05:02:00,
2013-03-19 01:33:00,28.0,28.0,-100.00,SSE,159,10.0,17.0,100,0.00,,,0.00,0.000000,,2013-03-19 05:33:00,
2013-03-19 01:43:00,28.0,28.0,-100.00,SSE,159,10.0,17.0,100,0.00,,,0.00,0.000000,,2013-03-19 05:43:00,
2013-03-19 01:52:00,28.0,28.0,-100.00,SSE,159,10.0,17.0,100,0.00,,,0.00,0.000000,,2013-03-19 05:52:00,
2013-03-19 02:03:00,28.0,28.0,-100.00,SSE,159,10.0,17.0,100,0.00,,,0.00,0.000000,,2013-03-19 06:03:00,
2013-03-19 02:32:00,28.0,28.0,-100.00,SSE,160,8.0,13.0,100,0.00,,,0.00,0.000000,,2013-03-19 06:32:00,
2013-03-19 02:42:00,28.0,28.0,-100.00,SSE,160,8.0,13.0,100,0.00,,,0.00,0.000000,,2013-03-19 06:42:00,
2013-03-19 02:53:00,28.0,28.0,-100.00,SSE,160,8.0,13.0,100,0.00,,,0.00,0.000000,,2013-03-19 06:53:00,
2013-03-19 03:03:00,28.0,28.0,-100.00,SSE,160,8.0,13.0,100,0.00,,,0.00,0.000000,,2013-03-19 07:03:00,
2013-03-19 03:32:00,28.0,28.0,-100.00,SSE,161,7.0,12.0,100,0.00,,,0.00,0.000000,,2013-03-19 07:32:00,
2013-03-19 03:42:00,28.0,28.0,-100.00,SSE,161,7.0,12.0,100,0.00,,,0.00,0.000000,,2013-03-19 07:42:00,
2013-03-19 03:53:00,28.0,28.0,-100.00,SSE,161,7.0,12.0,100,0.00,,,0.00,0.000000,,2013-03-19 07:53:00,
2013-03-19 04:03:00,28.0,28.0,-100.00,SSE,161,7.0,12.0,100,0.00,,,0.00,0.000000,,2013-03-19 08:03:00,
2013-03-19 04:33:00,28.0,28.0,-100.00,SSE,165,5.0,10.0,100,0.00,,,0.00,0.000000,,2013-03-19 08:33:00,
2013-03-19 04:43:00,28.0,28.0,-100.00,SSE,165,5.0,10.0,100,0.00,,,0.00,0.000000,,2013-03-19 08:43:00,
2013-03-19 04:53:00,28.0,28.0,-100.00,SSE,165,5.0,10.0,100,0.00,,,0.00,0.000000,,2013-03-19 08:53:00,
2013-03-19 05:03:00,28.0,28.0,-100.00,SSE,165,5.0,10.0,100,0.00,,,0.00,0.000000,,2013-03-19 09:03:00,
2013-03-19 05:33:00,29.0,29.0,-100.00,SSW,199,4.0,7.0,100,0.00,,,0.00,0.000000,,2013-03-19 09:33:00,
2013-03-19 05:43:00,29.0,29.0,-100.00,SSW,199,4.0,7.0,100,0.00,,,0.00,0.000000,,2013-03-19 09:43:00,
2013-03-19 05:53:00,29.0,29.0,-100.00,SSW,199,4.0,7.0,100,0.00,,,0.00,0.000000,,2013-03-19 09:53:00,
2013-03-19 06:04:00,29.0,29.0,-100.00,SSW,199,4.0,7.0,100,0.00,,,0.00,0.000000,,2013-03-19 10:04:00,
2013-03-19 06:33:00,31.0,31.0,-100.00,West,261,4.0,7.0,100,0.00,,,0.00,0.000000,,2013-03-19 10:33:00,
2013-03-19 06:42:00,31.0,31.0,-100.00,West,261,4.0,7.0,100,0.00,,,0.00,0.000000,,2013-03-19 10:42:00,
2013-03-19 06:53:00,31.0,31.0,-100.00,West,261,4.0,7.0,100,0.00,,,0.00,0.000000,,2013-03-19 10:53:00,
2013-03-19 07:03:00,31.0,31.0,-100.00,West,261,4.0,7.0,100,0.00,,,0.00,0.000000,,2013-03-19 11:03:00,
2013-03-19 07:33:00,30.0,30.0,-100.00,WNW,300,6.0,14.0,100,0.00,,,0.00,0.000000,,2013-03-19 11:33:00,
2013-03-19 07:43:00,30.0,30.0,-100.00,WNW,300,6.0,14.0,100,0.00,,,0.00,0.000000,,2013-03-19 11:43:00,
2013-03-19 07:53:00,30.0,30.0,-100.00,WNW,300,6.0,14.0,100,0.00,,,0.00,0.000000,,2013-03-19 11:53:00,
2013-03-19 08:02:00,30.0,30.0,-100.00,WNW,300,6.0,14.0,100,0.00,,,0.00,0.000000,,2013-03-19 12:02:00,
2013-03-19 09:33:00,31.0,31.0,-100.00,West,275,4.0,10.0,100,-99.99,,,0.00,86.000000,,2013-03-19 13:33:00,
2013-03-19 09:42:00,31.0,31.0,-100.00,West,275,4.0,10.0,100,-99.99,,,0.00,86.000000,,2013-03-19 13:42:00,
2013-03-19 09:53:00,31.0,31.0,-100.00,West,275,4.0,10.0,100,-99.99,,,0.00,86.000000,,2013-03-19 13:53:00,
2013-03-19 10:02:00,31.0,31.0,-100.00,West,275,4.0,10.0,100,-99.99,,,0.00,86.000000,,2013-03-19 14:02:00,
2013-03-19 10:33:00,32.0,30.0,-100.00,WSW,251,7.0,14.0,93,0.01,,,0.01,310.000000,,2013-03-19 14:33:00,
2013-03-19 10:42:00,32.0,30.0,-100.00,WSW,251,7.0,14.0,93,0.01,,,0.01,310.000000,,2013-03-19 14:42:00,
2013-03-19 10:53:00,32.0,30.0,-100.00,WSW,251,7.0,14.0,93,0.01,,,0.01,310.000000,,2013-03-19 14:53:00,
2013-03-19 11:02:00,32.0,30.0,-100.00,WSW,251,7.0,14.0,93,0.01,,,0.01,310.000000,,2013-03-19 15:02:00,
2013-03-19 11:34:00,33.0,29.0,-100.00,WSW,258,9.0,15.0,86,0.10,,,0.11,243.000000,,2013-03-19 15:34:00,
2013-03-19 11:44:00,33.0,29.0,-100.00,WSW,258,9.0,15.0,86,0.10,,,0.11,243.000000,,2013-03-19 15:44:00,
2013-03-19 11:54:00,33.0,29.0,-100.00,WSW,258,9.0,15.0,86,0.10,,,0.11,243.000000,,2013-03-19 15:54:00,
2013-03-19 12:04:00,33.0,29.0,-100.00,WSW,258,9.0,15.0,86,0.10,,,0.11,243.000000,,2013-03-19 16:04:00,
2013-03-19 12:34:00,35.0,28.0,-100.00,West,265,9.0,17.0,75,0.09,,,0.20,469.000000,,2013-03-19 16:34:00,
2013-03-19 12:44:00,35.0,28.0,-100.00,West,265,9.0,17.0,75,0.09,,,0.20,469.000000,,2013-03-19 16:44:00,
2013-03-19 12:55:00,35.0,28.0,-100.00,West,265,9.0,17.0,75,0.09,,,0.20,469.000000,,2013-03-19 16:55:00,
2013-03-19 13:03:00,35.0,28.0,-100.00,West,265,9.0,17.0,75,0.09,,,0.20,469.000000,,2013-03-19 17:03:00,
2013-03-19 13:35:00,37.0,28.0,-100.00,West,262,9.0,20.0,69,0.12,,,0.32,550.000000,,2013-03-19 17:35:00,
2013-03-19 13:44:00,37.0,28.0,-100.00,West,262,9.0,20.0,69,0.12,,,0.32,550.000000,,2013-03-19 17:44:00,
2013-03-19 13:53:00,37.0,28.0,-100.00,West,262,9.0,20.0,69,0.12,,,0.32,550.000000,,2013-03-19 17:53:00,
2013-03-19 14:03:00,37.0,28.0,-100.00,West,262,9.0,20.0,69,0.12,,,0.32,550.000000,,2013-03-19 18:03:00,
2013-03-19 14:34:00,38.0,25.0,-100.00,West,280,10.0,20.0,58,0.02,,,0.34,525.000000,,2013-03-19 18:34:00,
2013-03-19 14:44:00,38.0,25.0,-100.00,West,280,10.0,20.0,58,0.02,,,0.34,525.000000,,2013-03-19 18:44:00,
2013-03-19 14:53:00,38.0,25.0,-100.00,West,280,10.0,20.0,58,0.02,,,0.34,525.000000,,2013-03-19 18:53:00,
2013-03-19 15:02:00,38.0,25.0,-100.00,West,280,10.0,20.0,58,0.02,,,0.34,525.000000,,2013-03-19 19:02:00,
2013-03-19 15:33:00,40.0,24.0,-100.00,WNW,295,8.0,24.0,53,0.00,,,0.34,560.000000,,2013-03-19 19:33:00,
2013-03-19 15:43:00,40.0,24.0,-100.00,WNW,295,8.0,24.0,53,0.00,,,0.34,560.000000,,2013-03-19 19:43:00,
2013-03-19 15:53:00,40.0,24.0,-100.00,WNW,295,8.0,24.0,53,0.00,,,0.34,560.000000,,2013-03-19 19:53:00,
2013-03-19 16:03:00,40.0,24.0,-100.00,WNW,295,8.0,24.0,53,0.00,,,0.34,560.000000,,2013-03-19 20:03:00,
2013-03-19 16:33:00,33.0,21.0,-100.00,WNW,303,9.0,22.0,60,0.00,,,0.34,407.000000,,2013-03-19 20:33:00,
2013-03-19 16:43:00,33.0,21.0,-100.00,WNW,303,9.0,22.0,60,0.00,,,0.34,407.000000,,2013-03-19 20:43:00,
2013-03-19 16:53:00,33.0,21.0,-100.00,WNW,303,9.0,22.0,60,0.00,,,0.34,407.000000,,2013-03-19 20:53:00,
2013-03-19 17:02:00,33.0,21.0,-100.00,WNW,303,9.0,22.0,60,0.00,,,0.34,407.000000,,2013-03-19 21:02:00,
2013-03-19 17:34:00,30.0,17.0,-100.00,WNW,295,10.0,22.0,59,0.00,,,0.34,289.000000,,2013-03-19 21:34:00,
2013-03-19 17:43:00,30.0,17.0,-100.00,WNW,295,10.0,22.0,59,0.00,,,0.34,289.000000,,2013-03-19 21:43:00,
2013-03-19 17:53:00,30.0,17.0,-100.00,WNW,295,10.0,22.0,59,0.00,,,0.34,289.000000,,2013-03-19 21:53:00,
2013-03-19 18:03:00,30.0,17.0,-100.00,WNW,295,10.0,22.0,59,0.00,,,0.34,289.000000,,2013-03-19 22:03:00,
2013-03-19 18:34:00,27.0,16.0,-100.00,West,275,10.0,26.0,62,0.00,,,0.34,133.000000,,2013-03-19 22:34:00,
2013-03-19 18:44:00,27.0,16.0,-100.00,West,275,10.0,26.0,62,0.00,,,0.34,133.000000,,2013-03-19 22:44:00,
2013-03-19 18:54:00,27.0,16.0,-100.00,West,275,10.0,26.0,62,0.00,,,0.34,133.000000,,2013-03-19 22:54:00,
2013-03-19 19:03:00,27.0,16.0,-100.00,West,275,10.0,26.0,62,0.00,,,0.34,133.000000,,2013-03-19 23:03:00,
2013-03-19 19:33:00,24.0,15.0,-100.00,West,281,11.0,23.0,67,0.00,,,0.34,36.000000,,2013-03-19 23:33:00,
2013-03-19 19:43:00,24.0,15.0,-100.00,West,281,11.0,23.0,67,0.00,,,0.34,36.000000,,2013-03-19 23:43:00,
2013-03-19 19:53:00,24.0,15.0,-100.00,West,281,11.0,23.0,67,0.00,,,0.34,36.000000,,2013-03-19 23:53:00,
2013-03-19 20:03:00,24.0,15.0,-100.00,West,281,11.0,23.0,67,0.00,,,0.34,36.000000,,2013-03-20 00:03:00,
2013-03-19 20:33:00,23.0,20.0,-100.00,WNW,284,9.0,22.0,88,0.00,,,-99.99,2.000000,,2013-03-20 00:33:00,
2013-03-19 20:43:00,23.0,20.0,-100.00,WNW,284,9.0,22.0,88,0.00,,,-99.99,2.000000,,2013-03-20 00:43:00,
2013-03-19 20:52:00,23.0,20.0,-100.00,WNW,284,9.0,22.0,88,0.00,,,-99.99,2.000000,,2013-03-20 00:52:00,
2013-03-19 21:03:00,23.0,20.0,-100.00,WNW,284,9.0,22.0,88,0.00,,,-99.99,2.000000,,2013-03-20 01:03:00,
2013-03-19 21:32:00,23.0,16.0,-100.00,WNW,293,9.0,21.0,74,0.00,,,0.34,0.000000,,2013-03-20 01:32:00,
2013-03-19 21:43:00,23.0,16.0,-100.00,WNW,293,9.0,21.0,74,0.00,,,0.34,0.000000,,2013-03-20 01:43:00,
2013-03-19 21:53:00,23.0,16.0,-100.00,WNW,293,9.0,21.0,74,0.00,,,0.34,0.000000,,2013-03-20 01:53:00,
2013-03-19 22:02:00,23.0,16.0,-100.00,WNW,293,9.0,21.0,74,0.00,,,0.34,0.000000,,2013-03-20 02:02:00,
2013-03-19 22:32:00,22.0,16.0,-100.00,WNW,295,10.0,19.0,79,0.00,,,0.34,0.000000,,2013-03-20 02:32:00,
2013-03-19 22:43:00,22.0,16.0,-100.00,WNW,295,10.0,19.0,79,0.00,,,0.34,0.000000,,2013-03-20 02:43:00,
2013-03-19 22:53:00,22.0,16.0,-100.00,WNW,295,10.0,19.0,79,0.00,,,0.34,0.000000,,2013-03-20 02:53:00,
2013-03-19 23:02:00,22.0,16.0,-100.00,WNW,295,10.0,19.0,79,0.00,,,0.34,0.000000,,2013-03-20 03:02:00,
2013-03-19 23:34:00,23.0,17.0,-100.00,West,275,7.0,17.0,76,0.00,,,0.34,0.000000,,2013-03-20 03:34:00,
2013-03-19 23:43:00,23.0,17.0,-100.00,West,275,7.0,17.0,76,0.00,,,0.34,0.000000,,2013-03-20 03:43:00,
2013-03-19 23:53:00,23.0,17.0,-100.00,West,275,7.0,17.0,76,0.00,,,0.34,0.000000,,2013-03-20 03:53:00,